Dr.kaiyo — JD2325 — position and weather

sailwx.info

Track history (hours):
 
Tides and Currents Weather Stations Pressure Air Temp Water Temp Dewpoint Dewpoint Depression Visibility Wind Speed Wind Dir Waves Ship Positions

Dr.kaiyo

Last reported at 2017-Nov-20 00:29 UTC. Time now 2017-Nov-20 01:45 UTC.
Position N 34°40' E 135°15'.

Length 31 m.

Type: Other ship. MMSI: 431301823.

Date/timePositionNaut miles runAvg speedWind from/ knotsBaromVisibWave heightAir tempDewpointWater temp
2017-Nov-20 00:29N 34°40' E 135°15'3 5.5
2017-Nov-20 00:00N 34°41' E 135°12'  
2017-Nov-17 05:49N 34°41' E 135°12'1 1.8
2017-Nov-17 05:30N 34°41' E 135°13'5 9.7
2017-Nov-17 05:00N 34°37' E 135°10'4 8.7
2017-Nov-17 04:30N 34°36' E 135°05'813.3
2017-Nov-17 03:56N 34°29' E 135°01'2 4.4
2017-Nov-17 03:29N 34°28' E 135°02'5 8.0
2017-Nov-17 02:51N 34°30' E 135°08'3 7.0
2017-Nov-17 02:28N 34°32' E 135°10'511.9
2017-Nov-17 02:00N 34°29' E 135°15'6 9.6
2017-Nov-17 01:26N 34°32' E 135°21'410.3
2017-Nov-17 01:00N 34°37' E 135°21'3 6.7
2017-Nov-17 00:30N 34°40' E 135°21'511.0
2017-Nov-17 00:00N 34°36' E 135°16'4 7.8
2017-Nov-16 23:30N 34°40' E 135°15'2 4.9
2017-Nov-16 23:00N 34°41' E 135°12'0 0.0
2017-Nov-16 22:30N 34°41' E 135°12'0 0.0
2017-Nov-16 05:04N 34°41' E 135°12'0 0.0
2017-Nov-16 05:00N 34°41' E 135°12'3 6.3
2017-Nov-16 04:30N 34°41' E 135°16'3 6.6
2017-Nov-16 04:00N 34°41' E 135°20'0 0.0
2017-Nov-16 03:30N 34°41' E 135°20'0 0.0
2017-Nov-16 03:00N 34°41' E 135°20'1 2.6
2017-Nov-16 02:30N 34°40' E 135°19'713.5
2017-Nov-16 02:00N 34°34' E 135°16'713.6
2017-Nov-16 01:30N 34°28' E 135°21'4 9.0
2017-Nov-16 01:00N 34°32' E 135°18'714.1
2017-Nov-16 00:30N 34°39' E 135°16'4 7.4
2017-Nov-16 00:00N 34°41' E 135°12'0 0.0
2017-Nov-15 04:20N 34°41' E 135°12'1 4.1
2017-Nov-15 04:00N 34°41' E 135°14'611.3
2017-Nov-15 03:30N 34°36' E 135°18'813.3
2017-Nov-15 02:56N 34°29' E 135°18'3 2.3
2017-Nov-15 01:30N 34°25' E 135°18'712.8
2017-Nov-15 00:59N 34°32' E 135°17'714.3
2017-Nov-15 00:30N 34°38' E 135°16'4 8.6
2017-Nov-15 00:00N 34°41' E 135°12'0 0.0
2017-Nov-14 05:29N 34°41' E 135°12'1 3.2
2017-Nov-14 05:00N 34°40' E 135°12'5 9.5
2017-Nov-14 04:30N 34°37' E 135°16'4 8.5
2017-Nov-14 04:00N 34°35' E 135°21'0 0.0
2017-Nov-14 03:30N 34°35' E 135°21'0 0.0
2017-Nov-14 03:00N 34°35' E 135°21'3 6.9
2017-Nov-14 02:30N 34°31' E 135°19'812.3
2017-Nov-14 01:51N 34°24' E 135°15'411.3
2017-Nov-14 01:30N 34°25' E 135°11'714.0
2017-Nov-14 01:00N 34°32' E 135°09'713.5
2017-Nov-14 00:30N 34°39' E 135°11'3 6.1
2017-Nov-14 00:00N 34°41' E 135°12'16 0.7
2017-Nov-13 02:00N 34°26' E 135°18'611.7
2017-Nov-13 01:31N 34°30' E 135°13'510.2
2017-Nov-13 00:59N 34°34' E 135°09'511.3
2017-Nov-13 00:30N 34°39' E 135°11'2 4.4
2017-Nov-13 00:00N 34°41' E 135°12'  
2017-Nov-10 05:45N 34°41' E 135°12'0 2.1
2017-Nov-10 05:31N 34°42' E 135°13'5 9.8
2017-Nov-10 05:00N 34°37' E 135°11'5 9.0
2017-Nov-10 04:30N 34°37' E 135°05'611.4
2017-Nov-10 04:00N 34°32' E 135°02'4 5.8
2017-Nov-10 03:17N 34°28' E 135°04'2 5.1
2017-Nov-10 02:56N 34°29' E 135°06'510.6
2017-Nov-10 02:28N 34°32' E 135°10'5 9.9
2017-Nov-10 01:59N 34°29' E 135°15'510.2
2017-Nov-10 01:28N 34°32' E 135°20'510.2
2017-Nov-10 01:00N 34°37' E 135°21'4 7.2
2017-Nov-10 00:31N 34°40' E 135°21'  
Track history (hours):
 
Tides and Currents Weather Stations Pressure Air Temp Water Temp Dewpoint Dewpoint Depression Visibility Wind Speed Wind Dir Waves Ship Positions

Dr.kaiyo

Last reported at 2017-Nov-20 00:29 UTC. Time now 2017-Nov-20 01:45 UTC.
Position N 34°40' E 135°15'.

Length 31 m.

Type: Other ship. MMSI: 431301823.

Date/timePositionNaut miles runAvg speedWind from/ knotsBaromVisibWave heightAir tempDewpointWater temp
2017-Nov-20 00:29N 34°40' E 135°15'3 5.5
2017-Nov-20 00:00N 34°41' E 135°12'  
2017-Nov-17 05:49N 34°41' E 135°12'1 1.8
2017-Nov-17 05:30N 34°41' E 135°13'5 9.7
2017-Nov-17 05:00N 34°37' E 135°10'4 8.7
2017-Nov-17 04:30N 34°36' E 135°05'813.3
2017-Nov-17 03:56N 34°29' E 135°01'2 4.4
2017-Nov-17 03:29N 34°28' E 135°02'5 8.0
2017-Nov-17 02:51N 34°30' E 135°08'3 7.0
2017-Nov-17 02:28N 34°32' E 135°10'511.9
2017-Nov-17 02:00N 34°29' E 135°15'6 9.6
2017-Nov-17 01:26N 34°32' E 135°21'410.3
2017-Nov-17 01:00N 34°37' E 135°21'3 6.7
2017-Nov-17 00:30N 34°40' E 135°21'511.0
2017-Nov-17 00:00N 34°36' E 135°16'4 7.8
2017-Nov-16 23:30N 34°40' E 135°15'2 4.9
2017-Nov-16 23:00N 34°41' E 135°12'0 0.0
2017-Nov-16 22:30N 34°41' E 135°12'0 0.0
2017-Nov-16 05:04N 34°41' E 135°12'0 0.0
2017-Nov-16 05:00N 34°41' E 135°12'3 6.3
2017-Nov-16 04:30N 34°41' E 135°16'3 6.6
2017-Nov-16 04:00N 34°41' E 135°20'0 0.0
2017-Nov-16 03:30N 34°41' E 135°20'0 0.0
2017-Nov-16 03:00N 34°41' E 135°20'1 2.6
2017-Nov-16 02:30N 34°40' E 135°19'713.5
2017-Nov-16 02:00N 34°34' E 135°16'713.6
2017-Nov-16 01:30N 34°28' E 135°21'4 9.0
2017-Nov-16 01:00N 34°32' E 135°18'714.1
2017-Nov-16 00:30N 34°39' E 135°16'4 7.4
2017-Nov-16 00:00N 34°41' E 135°12'0 0.0
2017-Nov-15 04:20N 34°41' E 135°12'1 4.1
2017-Nov-15 04:00N 34°41' E 135°14'611.3
2017-Nov-15 03:30N 34°36' E 135°18'813.3
2017-Nov-15 02:56N 34°29' E 135°18'3 2.3
2017-Nov-15 01:30N 34°25' E 135°18'712.8
2017-Nov-15 00:59N 34°32' E 135°17'714.3
2017-Nov-15 00:30N 34°38' E 135°16'4 8.6
2017-Nov-15 00:00N 34°41' E 135°12'0 0.0
2017-Nov-14 05:29N 34°41' E 135°12'1 3.2
2017-Nov-14 05:00N 34°40' E 135°12'5 9.5
2017-Nov-14 04:30N 34°37' E 135°16'4 8.5
2017-Nov-14 04:00N 34°35' E 135°21'0 0.0
2017-Nov-14 03:30N 34°35' E 135°21'0 0.0
2017-Nov-14 03:00N 34°35' E 135°21'3 6.9
2017-Nov-14 02:30N 34°31' E 135°19'812.3
2017-Nov-14 01:51N 34°24' E 135°15'411.3
2017-Nov-14 01:30N 34°25' E 135°11'714.0
2017-Nov-14 01:00N 34°32' E 135°09'713.5
2017-Nov-14 00:30N 34°39' E 135°11'3 6.1
2017-Nov-14 00:00N 34°41' E 135°12'16 0.7
2017-Nov-13 02:00N 34°26' E 135°18'611.7
2017-Nov-13 01:31N 34°30' E 135°13'510.2
2017-Nov-13 00:59N 34°34' E 135°09'511.3
2017-Nov-13 00:30N 34°39' E 135°11'2 4.4
2017-Nov-13 00:00N 34°41' E 135°12'  
2017-Nov-10 05:45N 34°41' E 135°12'0 2.1
2017-Nov-10 05:31N 34°42' E 135°13'5 9.8
2017-Nov-10 05:00N 34°37' E 135°11'5 9.0
2017-Nov-10 04:30N 34°37' E 135°05'611.4
2017-Nov-10 04:00N 34°32' E 135°02'4 5.8
2017-Nov-10 03:17N 34°28' E 135°04'2 5.1
2017-Nov-10 02:56N 34°29' E 135°06'510.6
2017-Nov-10 02:28N 34°32' E 135°10'5 9.9
2017-Nov-10 01:59N 34°29' E 135°15'510.2
2017-Nov-10 01:28N 34°32' E 135°20'510.2
2017-Nov-10 01:00N 34°37' E 135°21'4 7.2
2017-Nov-10 00:31N 34°40' E 135°21'  

Dump ship's entire track history